Time;durP1;ratioP1;P1;durP2;ratioP2;P2;SDS_P1;SDS_P2;PMS_P1;PMS_P2;Temp;Humidity;BMP_temperature;BMP_pressure;BME280_temperature;BME280_humidity;BME280_pressure;Samples;Min_cycle;Max_cycle;Signal;HPM_P1;HPM_P2
2021/06/22 00:00:17;;;;;;;80.75;29.35;;;;;;;;;;5055777;28;20127;-70
2021/06/22 00:02:43;;;;;;;79.70;28.67;;;;;;;;;;5071964;28;20043;-71
2021/06/22 00:05:10;;;;;;;87.40;30.23;;;;;;;;;;5077580;28;20063;-70
2021/06/22 00:07:46;;;;;;;69.60;28.60;;;;;;;;;;5065609;28;20530;-71
2021/06/22 00:10:12;;;;;;;87.50;27.58;;;;;;;;;;5084417;28;20036;-72
2021/06/22 00:12:38;;;;;;;66.93;26.20;;;;;;;;;;5076394;28;20028;-72
2021/06/22 00:15:04;;;;;;;72.28;28.40;;;;;;;;;;5075248;28;20066;-69
2021/06/22 00:17:30;;;;;;;71.13;30.38;;;;;;;;;;5070472;28;20048;-71
2021/06/22 00:19:56;;;;;;;79.55;28.85;;;;;;;;;;5046367;28;20040;-73
2021/06/22 00:22:21;;;;;;;82.10;29.27;;;;;;;;;;5080776;28;20035;-71
2021/06/22 00:24:48;;;;;;;102.70;29.42;;;;;;;;;;5047724;28;20106;-72
2021/06/22 00:27:14;;;;;;;73.25;28.73;;;;;;;;;;5094322;28;20052;-71
2021/06/22 00:29:43;;;;;;;87.22;29.55;;;;;;;;;;5085365;28;20492;-72
2021/06/22 00:32:10;;;;;;;79.25;28.98;;;;;;;;;;5073260;28;20495;-71
2021/06/22 00:34:36;;;;;;;80.18;28.70;;;;;;;;;;5074883;28;20127;-72
2021/06/22 00:37:04;;;;;;;71.20;27.90;;;;;;;;;;5072568;28;20056;-72
2021/06/22 00:39:30;;;;;;;72.13;28.15;;;;;;;;;;5068189;28;20047;-72
2021/06/22 00:41:56;;;;;;;82.07;28.95;;;;;;;;;;5077057;28;20043;-71
2021/06/22 00:44:22;;;;;;;91.78;29.60;;;;;;;;;;5067215;28;20040;-70
2021/06/22 00:46:51;;;;;;;81.82;28.33;;;;;;;;;;5072535;28;20101;-70
2021/06/22 00:49:19;;;;;;;83.57;28.50;;;;;;;;;;5068064;28;20449;-70
2021/06/22 00:51:44;;;;;;;87.82;30.80;;;;;;;;;;5076381;28;20091;-75
2021/06/22 00:54:11;;;;;;;85.63;29.75;;;;;;;;;;5076728;28;20120;-74
2021/06/22 00:56:40;;;;;;;88.05;30.17;;;;;;;;;;5068866;28;20071;-75
2021/06/22 00:59:06;;;;;;;93.15;31.48;;;;;;;;;;5064362;28;20064;-72
2021/06/22 01:01:32;;;;;;;110.00;31.20;;;;;;;;;;5070219;28;20044;-75
2021/06/22 01:03:58;;;;;;;90.05;30.52;;;;;;;;;;5074669;28;20044;-76
2021/06/22 01:06:24;;;;;;;105.45;30.02;;;;;;;;;;5071747;28;20105;-72
2021/06/22 01:09:06;;;;;;;;;;;;;;;;;;5066965;28;20507;-71
2021/06/22 01:11:37;;;;;;;93.45;29.05;;;;;;;;;;5084160;28;20294;-71
2021/06/22 01:14:03;;;;;;;88.57;30.70;;;;;;;;;;5062143;28;20041;-71
2021/06/22 01:16:29;;;;;;;79.85;31.08;;;;;;;;;;5050361;28;20519;-71
2021/06/22 01:18:56;;;;;;;74.82;29.67;;;;;;;;;;5076373;28;20035;-71
2021/06/22 01:21:25;;;;;;;91.32;33.25;;;;;;;;;;5071636;28;20506;-71
2021/06/22 01:24:08;;;;;;;110.30;44.45;;;;;;;;;;5066451;28;20048;-71
2021/06/22 01:26:36;;;;;;;98.05;33.22;;;;;;;;;;5078328;28;20444;-70
2021/06/22 01:29:02;;;;;;;98.72;35.10;;;;;;;;;;5069195;28;20055;-71
2021/06/22 01:31:28;;;;;;;99.28;38.90;;;;;;;;;;5066529;28;20555;-72
2021/06/22 01:33:54;;;;;;;96.25;35.53;;;;;;;;;;5044701;28;20142;-72
2021/06/22 01:36:27;;;;;;;110.47;45.22;;;;;;;;;;5079326;28;20079;-76
2021/06/22 01:38:53;;;;;;;125.65;51.15;;;;;;;;;;5081025;28;20085;-75
2021/06/22 01:41:20;;;;;;;116.63;46.35;;;;;;;;;;5066145;28;20067;-68
2021/06/22 01:43:48;;;;;;;103.93;43.03;;;;;;;;;;5084914;28;20388;-68
2021/06/22 01:46:17;;;;;;;108.05;42.58;;;;;;;;;;5084018;28;20440;-78
2021/06/22 01:48:43;;;;;;;102.40;42.00;;;;;;;;;;5068716;28;20048;-75
2021/06/22 01:51:10;;;;;;;106.65;40.80;;;;;;;;;;5065162;28;20040;-75
2021/06/22 01:53:35;;;;;;;100.35;37.10;;;;;;;;;;5045626;28;20036;-76
2021/06/22 01:56:11;;;;;;;96.60;35.70;;;;;;;;;;5073280;28;20558;-76
2021/06/22 01:58:39;;;;;;;107.05;36.28;;;;;;;;;;5047041;28;20488;-76
2021/06/22 02:01:18;;;;;;;102.13;38.67;;;;;;;;;;5061878;28;20082;-78
2021/06/22 02:04:02;;;;;;;86.15;35.33;;;;;;;;;;5065633;28;20123;-77
2021/06/22 02:06:28;;;;;;;109.13;36.10;;;;;;;;;;5064196;28;20115;-76
2021/06/22 02:09:12;;;;;;;87.22;34.85;;;;;;;;;;5064047;28;20105;-75
2021/06/22 02:11:37;;;;;;;97.72;33.92;;;;;;;;;;5062612;28;20040;-75
2021/06/22 02:14:06;;;;;;;85.93;33.38;;;;;;;;;;5077760;28;20149;-74
2021/06/22 02:16:32;;;;;;;92.40;32.85;;;;;;;;;;5074571;28;20111;-74
2021/06/22 02:19:01;;;;;;;89.57;31.02;;;;;;;;;;5068415;28;20074;-72
2021/06/22 02:21:27;;;;;;;100.85;33.05;;;;;;;;;;5069796;28;20040;-73
2021/06/22 02:23:53;;;;;;;90.35;31.10;;;;;;;;;;5055110;28;20145;-72
2021/06/22 02:26:22;;;;;;;92.47;30.98;;;;;;;;;;5051642;28;20060;-73
2021/06/22 02:28:48;;;;;;;87.13;30.80;;;;;;;;;;5077288;28;20052;-74
2021/06/22 02:31:14;;;;;;;85.55;31.65;;;;;;;;;;5070485;28;20569;-72
2021/06/22 02:33:41;;;;;;;76.95;30.48;;;;;;;;;;5062686;28;20262;-73
2021/06/22 02:36:09;;;;;;;78.95;29.98;;;;;;;;;;5068176;28;20508;-72
2021/06/22 02:38:40;;;;;;;90.97;29.88;;;;;;;;;;5058665;28;20028;-72
2021/06/22 02:41:08;;;;;;;93.13;31.17;;;;;;;;;;5051369;28;20044;-73
2021/06/22 02:43:37;;;;;;;73.32;28.60;;;;;;;;;;5068082;28;20488;-73
2021/06/22 02:46:07;;;;;;;83.22;32.35;;;;;;;;;;5077282;28;20027;-72
2021/06/22 02:48:34;;;;;;;86.38;32.28;;;;;;;;;;5084884;28;20044;-74
2021/06/22 02:51:01;;;;;;;107.38;31.02;;;;;;;;;;5070609;28;20455;-75
2021/06/22 02:53:33;;;;;;;88.28;29.98;;;;;;;;;;5086514;28;20089;-72
2021/06/22 02:55:59;;;;;;;95.05;31.48;;;;;;;;;;5067829;28;20032;-74
2021/06/22 02:58:34;;;;;;;91.65;29.73;;;;;;;;;;5050142;28;20044;-72
2021/06/22 03:01:00;;;;;;;78.53;30.17;;;;;;;;;;5056047;28;20385;-73
2021/06/22 03:03:28;;;;;;;74.63;29.08;;;;;;;;;;5059062;28;20032;-74
2021/06/22 03:06:02;;;;;;;70.03;29.00;;;;;;;;;;5073347;28;20032;-76
2021/06/22 03:08:34;;;;;;;79.28;29.17;;;;;;;;;;5085786;28;20523;-75
2021/06/22 03:11:02;;;;;;;95.82;32.65;;;;;;;;;;5084804;28;20415;-72
2021/06/22 03:13:31;;;;;;;67.80;29.58;;;;;;;;;;5087528;28;20118;-72
2021/06/22 03:15:57;;;;;;;89.72;30.30;;;;;;;;;;5078718;28;20030;-73
2021/06/22 03:18:23;;;;;;;99.53;30.25;;;;;;;;;;5064329;28;20040;-69
2021/06/22 03:20:50;;;;;;;84.10;30.58;;;;;;;;;;5082943;28;20757;-70
2021/06/22 03:23:19;;;;;;;87.13;29.83;;;;;;;;;;5081577;28;20399;-71
2021/06/22 03:25:47;;;;;;;83.78;32.30;;;;;;;;;;5074160;28;20840;-71
2021/06/22 03:28:13;;;;;;;82.78;29.10;;;;;;;;;;5086139;28;20044;-70
2021/06/22 03:30:58;;;;;;;75.93;30.67;;;;;;;;;;5056562;28;20059;-71
2021/06/22 03:33:24;;;;;;;80.85;29.58;;;;;;;;;;5076455;28;20052;-70
2021/06/22 03:35:51;;;;;;;81.78;27.65;;;;;;;;;;5078191;28;20124;-76
2021/06/22 03:38:17;;;;;;;65.65;25.05;;;;;;;;;;5064871;28;20135;-71
2021/06/22 03:40:43;;;;;;;70.22;22.77;;;;;;;;;;5039058;28;20594;-75
2021/06/22 03:43:09;;;;;;;69.60;22.13;;;;;;;;;;5087062;28;20123;-72
2021/06/22 03:45:43;;;;;;;57.20;20.65;;;;;;;;;;5079573;28;20127;-71
2021/06/22 03:48:09;;;;;;;60.55;21.25;;;;;;;;;;5068158;28;20119;-71
2021/06/22 03:50:38;;;;;;;93.15;19.30;;;;;;;;;;5069608;28;20040;-72
2021/06/22 03:53:05;;;;;;;68.25;17.95;;;;;;;;;;5080878;28;20040;-72
2021/06/22 03:55:31;;;;;;;53.55;16.73;;;;;;;;;;5065952;28;20032;-72
2021/06/22 03:58:07;;;;;;;57.67;17.27;;;;;;;;;;5076369;28;20146;-74
2021/06/22 04:00:44;;;;;;;68.97;15.32;;;;;;;;;;5047176;28;20036;-73
2021/06/22 04:03:15;;;;;;;45.50;15.25;;;;;;;;;;5058381;28;20040;-73
2021/06/22 04:05:57;;;;;;;42.47;12.90;;;;;;;;;;5082533;28;20115;-74
2021/06/22 04:08:29;;;;;;;64.22;15.10;;;;;;;;;;5085026;28;20097;-74
2021/06/22 04:11:00;;;;;;;37.88;13.20;;;;;;;;;;5078055;28;20166;-74
2021/06/22 04:13:26;;;;;;;57.63;20.33;;;;;;;;;;5075515;28;20398;-73
2021/06/22 04:15:56;;;;;;;53.40;13.77;;;;;;;;;;5078222;28;20570;-74
2021/06/22 04:18:23;;;;;;;39.50;13.05;;;;;;;;;;5081785;28;20040;-74
2021/06/22 04:20:49;;;;;;;38.40;12.85;;;;;;;;;;5085902;28;20404;-72
2021/06/22 04:23:17;;;;;;;44.20;11.57;;;;;;;;;;5071259;28;20488;-72
2021/06/22 04:25:44;;;;;;;37.22;11.88;;;;;;;;;;5065501;28;20480;-72
2021/06/22 04:28:10;;;;;;;39.15;12.05;;;;;;;;;;5064917;28;20055;-70
2021/06/22 04:30:37;;;;;;;47.50;12.10;;;;;;;;;;5065619;28;20032;-73
2021/06/22 04:33:03;;;;;;;53.33;12.93;;;;;;;;;;5068612;28;20377;-74
2021/06/22 04:35:30;;;;;;;37.85;10.65;;;;;;;;;;5068677;28;20460;-71
2021/06/22 04:38:00;;;;;;;43.70;12.80;;;;;;;;;;5030202;28;20040;-71
2021/06/22 04:40:26;;;;;;;44.60;11.20;;;;;;;;;;5034224;28;20043;-72
2021/06/22 04:42:52;;;;;;;62.92;12.65;;;;;;;;;;5053876;28;20032;-71
2021/06/22 04:45:18;;;;;;;43.08;11.90;;;;;;;;;;5083407;28;20380;-71
2021/06/22 04:47:43;;;;;;;34.25;11.07;;;;;;;;;;5075041;28;20059;-71
2021/06/22 04:50:09;;;;;;;38.65;11.38;;;;;;;;;;5081547;28;20467;-74
2021/06/22 04:52:35;;;;;;;44.15;12.23;;;;;;;;;;5066513;28;20028;-74
2021/06/22 04:55:01;;;;;;;44.83;12.30;;;;;;;;;;5067317;28;20135;-76
2021/06/22 04:57:27;;;;;;;40.42;12.27;;;;;;;;;;5082318;28;20029;-74
2021/06/22 04:59:54;;;;;;;51.03;10.60;;;;;;;;;;5043082;28;20526;-73
2021/06/22 05:02:20;;;;;;;40.25;10.93;;;;;;;;;;5075288;28;20028;-72
2021/06/22 05:04:46;;;;;;;52.22;11.90;;;;;;;;;;5079880;28;20056;-71
2021/06/22 05:07:11;;;;;;;33.75;11.77;;;;;;;;;;5059681;28;20067;-70
2021/06/22 05:09:37;;;;;;;40.83;11.40;;;;;;;;;;5072645;28;20458;-80
2021/06/22 05:12:03;;;;;;;34.20;12.25;;;;;;;;;;5078416;28;20024;-76
2021/06/22 05:14:29;;;;;;;41.80;12.70;;;;;;;;;;5079934;28;20092;-70
2021/06/22 05:16:55;;;;;;;37.17;12.45;;;;;;;;;;5070532;28;20029;-69
2021/06/22 05:19:20;;;;;;;40.67;13.98;;;;;;;;;;5074899;28;20097;-70
2021/06/22 05:21:47;;;;;;;49.75;12.80;;;;;;;;;;5067262;28;20514;-70
2021/06/22 05:24:13;;;;;;;45.25;13.38;;;;;;;;;;5064425;28;20033;-70
2021/06/22 05:26:39;;;;;;;52.17;14.32;;;;;;;;;;5063363;28;20059;-68
2021/06/22 05:29:05;;;;;;;39.83;12.95;;;;;;;;;;5070676;28;20041;-71
2021/06/22 05:31:30;;;;;;;43.15;11.05;;;;;;;;;;5063275;28;20036;-67
2021/06/22 05:33:57;;;;;;;48.30;12.15;;;;;;;;;;5072978;28;20254;-72
2021/06/22 05:36:23;;;;;;;40.03;11.20;;;;;;;;;;5078920;28;20499;-70
2021/06/22 05:38:49;;;;;;;50.90;13.93;;;;;;;;;;5080071;28;20093;-77
2021/06/22 05:41:15;;;;;;;47.00;13.02;;;;;;;;;;5062007;28;20048;-71
2021/06/22 05:43:41;;;;;;;46.65;12.95;;;;;;;;;;5080850;28;20032;-72
2021/06/22 05:46:07;;;;;;;52.85;12.93;;;;;;;;;;5077308;28;20036;-71
2021/06/22 05:48:32;;;;;;;38.42;12.40;;;;;;;;;;5062248;28;20079;-70
2021/06/22 05:50:58;;;;;;;45.90;11.95;;;;;;;;;;5073794;28;20039;-70
2021/06/22 05:53:23;;;;;;;46.60;11.68;;;;;;;;;;5074822;28;20040;-73
2021/06/22 05:55:50;;;;;;;29.65;11.38;;;;;;;;;;5079792;28;20047;-72
2021/06/22 05:58:17;;;;;;;29.02;10.57;;;;;;;;;;5076239;28;20032;-70
2021/06/22 06:00:42;;;;;;;36.53;9.93;;;;;;;;;;5075139;28;20358;-73
2021/06/22 06:03:08;;;;;;;44.65;11.02;;;;;;;;;;5077677;28;20036;-71
2021/06/22 06:05:34;;;;;;;24.63;9.18;;;;;;;;;;5084216;28;20114;-75
2021/06/22 06:07:59;;;;;;;34.10;13.43;;;;;;;;;;5080562;28;20032;-72
2021/06/22 06:10:26;;;;;;;49.95;10.88;;;;;;;;;;5080214;28;20131;-76
2021/06/22 06:12:51;;;;;;;27.63;12.02;;;;;;;;;;5071260;28;20165;-75
2021/06/22 06:15:18;;;;;;;38.35;10.77;;;;;;;;;;5063119;28;20393;-77
2021/06/22 06:17:43;;;;;;;41.50;11.07;;;;;;;;;;5075776;28;20422;-71
2021/06/22 06:20:10;;;;;;;28.80;9.65;;;;;;;;;;5079635;28;20043;-72
2021/06/22 06:22:37;;;;;;;36.63;10.98;;;;;;;;;;5070526;28;20077;-73
2021/06/22 06:25:04;;;;;;;41.30;10.48;;;;;;;;;;5062024;28;20437;-71
2021/06/22 06:30:18;;;;;;;26.35;7.65;;;;;;;;;;5069631;28;20389;-76
2021/06/22 06:32:44;;;;;;;28.85;9.00;;;;;;;;;;5064646;28;20082;-74
2021/06/22 06:35:10;;;;;;;26.27;8.68;;;;;;;;;;5051965;28;20044;-74
2021/06/22 06:37:36;;;;;;;30.42;11.40;;;;;;;;;;5082232;28;20032;-80
2021/06/22 06:40:03;;;;;;;34.50;10.18;;;;;;;;;;5068770;28;20070;-70
2021/06/22 06:42:29;;;;;;;39.45;9.65;;;;;;;;;;5075041;28;20339;-76
2021/06/22 06:44:55;;;;;;;27.30;9.07;;;;;;;;;;5084893;28;20036;-77
2021/06/22 06:47:22;;;;;;;31.83;9.02;;;;;;;;;;5083663;28;20044;-75
2021/06/22 06:49:50;;;;;;;33.22;8.68;;;;;;;;;;5082348;28;20046;-71
2021/06/22 06:52:15;;;;;;;37.58;8.13;;;;;;;;;;5074810;28;20043;-72
2021/06/22 06:54:41;;;;;;;38.70;9.70;;;;;;;;;;5078330;28;20043;-71
2021/06/22 06:57:08;;;;;;;27.50;7.20;;;;;;;;;;5067976;28;20043;-71
2021/06/22 06:59:34;;;;;;;27.02;7.63;;;;;;;;;;5057397;28;20032;-76
2021/06/22 07:02:01;;;;;;;31.75;7.80;;;;;;;;;;5056822;28;20033;-75
2021/06/22 07:04:26;;;;;;;27.52;7.97;;;;;;;;;;5075324;28;20413;-75
2021/06/22 07:06:52;;;;;;;30.15;8.30;;;;;;;;;;5064933;28;20185;-76
2021/06/22 07:09:18;;;;;;;22.35;7.57;;;;;;;;;;5077006;28;20504;-74
2021/06/22 07:11:43;;;;;;;31.05;7.38;;;;;;;;;;5104043;28;20039;-77
2021/06/22 07:14:13;;;;;;;23.60;7.13;;;;;;;;;;5068369;28;20092;-72
2021/06/22 07:16:41;;;;;;;18.73;7.18;;;;;;;;;;5082239;28;20032;-73
2021/06/22 07:19:06;;;;;;;28.80;7.07;;;;;;;;;;5075835;28;20066;-74
2021/06/22 07:21:32;;;;;;;22.25;7.70;;;;;;;;;;5065006;28;20051;-75
2021/06/22 07:23:58;;;;;;;30.23;7.72;;;;;;;;;;5073054;28;20073;-73
2021/06/22 07:26:23;;;;;;;29.25;7.80;;;;;;;;;;5085870;28;20056;-71
2021/06/22 07:28:49;;;;;;;41.60;7.97;;;;;;;;;;5087907;28;20208;-75
2021/06/22 07:31:15;;;;;;;28.60;7.07;;;;;;;;;;5068706;28;20426;-72
2021/06/22 07:33:41;;;;;;;18.83;6.30;;;;;;;;;;5066192;28;20043;-75
2021/06/22 07:36:08;;;;;;;43.25;8.55;;;;;;;;;;5078446;28;20136;-75
2021/06/22 07:38:35;;;;;;;26.33;6.85;;;;;;;;;;5068435;28;20481;-78
2021/06/22 07:41:04;;;;;;;35.38;6.78;;;;;;;;;;5072994;28;20472;-77
2021/06/22 07:43:30;;;;;;;44.65;7.90;;;;;;;;;;5068371;28;20082;-76
2021/06/22 07:45:55;;;;;;;42.78;8.30;;;;;;;;;;5072919;28;20116;-77
2021/06/22 07:48:21;;;;;;;43.40;7.45;;;;;;;;;;5070283;28;20045;-71
2021/06/22 07:50:46;;;;;;;40.25;8.05;;;;;;;;;;5067790;28;20060;-76
2021/06/22 07:53:12;;;;;;;19.38;5.78;;;;;;;;;;5055830;28;20165;-76
2021/06/22 07:55:38;;;;;;;35.00;6.57;;;;;;;;;;5085263;28;20547;-75
2021/06/22 07:58:06;;;;;;;81.43;9.85;;;;;;;;;;5080704;28;20401;-71
2021/06/22 08:00:40;;;;;;;34.65;6.18;;;;;;;;;;5078451;28;20129;-72
2021/06/22 08:03:07;;;;;;;45.13;7.25;;;;;;;;;;5072924;28;20492;-73
2021/06/22 08:05:33;;;;;;;25.17;5.97;;;;;;;;;;5072141;28;20384;-71
2021/06/22 08:07:58;;;;;;;26.55;6.07;;;;;;;;;;5084988;28;20032;-74
2021/06/22 08:10:25;;;;;;;33.47;7.32;;;;;;;;;;5082675;28;20044;-72
2021/06/22 08:12:52;;;;;;;29.95;6.05;;;;;;;;;;5076491;28;20041;-74
2021/06/22 08:15:18;;;;;;;36.33;7.30;;;;;;;;;;5073842;28;20038;-74
2021/06/22 08:17:44;;;;;;;20.67;6.93;;;;;;;;;;5074695;28;20059;-72
2021/06/22 08:20:10;;;;;;;32.45;7.60;;;;;;;;;;5078034;28;20451;-72
2021/06/22 08:22:37;;;;;;;45.28;8.15;;;;;;;;;;5076846;28;20444;-73
2021/06/22 08:25:05;;;;;;;32.42;6.38;;;;;;;;;;5061385;28;20451;-74
2021/06/22 08:27:32;;;;;;;38.75;5.97;;;;;;;;;;5076248;28;20106;-76
2021/06/22 08:29:57;;;;;;;41.00;6.90;;;;;;;;;;5057433;28;20085;-76
2021/06/22 08:32:23;;;;;;;22.67;6.60;;;;;;;;;;5070270;28;20028;-73
2021/06/22 08:34:49;;;;;;;31.48;7.22;;;;;;;;;;5077312;28;20028;-71
2021/06/22 08:37:14;;;;;;;48.05;7.47;;;;;;;;;;5075366;28;20148;-72
2021/06/22 08:39:40;;;;;;;39.03;6.03;;;;;;;;;;5075050;28;20044;-75
2021/06/22 08:42:09;;;;;;;35.40;7.05;;;;;;;;;;5057875;28;20372;-68
2021/06/22 08:44:36;;;;;;;;;;;;;;;;;;5068552;28;20028;-72
2021/06/22 08:47:03;;;;;;;32.83;6.88;;;;;;;;;;5074736;28;19951;-70
2021/06/22 08:49:31;;;;;;;27.63;6.90;;;;;;;;;;5073507;28;20107;-70
2021/06/22 08:51:57;;;;;;;43.58;6.75;;;;;;;;;;5077034;28;20066;-74
2021/06/22 08:54:22;;;;;;;0.10;0.10;;;;;;;;;;5077290;28;20040;-72
2021/06/22 08:56:48;;;;;;;0.10;0.10;;;;;;;;;;5074148;28;20041;-71
2021/06/22 08:59:13;;;;;;;0.10;0.10;;;;;;;;;;5076832;28;20036;-74
2021/06/22 09:01:39;;;;;;;0.10;0.10;;;;;;;;;;5072866;28;20393;-74
2021/06/22 09:04:05;;;;;;;0.20;0.20;;;;;;;;;;5082546;28;20105;-75
2021/06/22 09:06:41;;;;;;;0.10;0.10;;;;;;;;;;5079876;28;20054;-76
2021/06/22 09:09:07;;;;;;;0.10;0.10;;;;;;;;;;5076748;28;20044;-73
2021/06/22 09:11:35;;;;;;;0.10;0.10;;;;;;;;;;5062542;28;20074;-76
2021/06/22 09:14:04;;;;;;;0.10;0.10;;;;;;;;;;5081792;28;20040;-73
2021/06/22 09:16:31;;;;;;;0.10;0.10;;;;;;;;;;5064365;28;20032;-74
2021/06/22 09:19:02;;;;;;;0.10;0.10;;;;;;;;;;5070297;28;20029;-76
2021/06/22 09:21:27;;;;;;;;;;;;;;;;;;5076763;28;20036;-75
2021/06/22 09:23:55;;;;;;;0.10;0.10;;;;;;;;;;5079158;28;20724;-72
2021/06/22 09:26:22;;;;;;;0.30;0.22;;;;;;;;;;5046777;28;20052;-75
2021/06/22 09:28:48;;;;;;;0.10;0.10;;;;;;;;;;5075615;28;20072;-73
2021/06/22 09:31:14;;;;;;;0.10;0.10;;;;;;;;;;5070119;28;20031;-74
2021/06/22 09:33:48;;;;;;;0.10;0.10;;;;;;;;;;5073717;28;20188;-72
2021/06/22 09:36:20;;;;;;;0.20;0.20;;;;;;;;;;5074441;28;20074;-71
2021/06/22 09:38:51;;;;;;;0.17;0.17;;;;;;;;;;5060360;28;20054;-72
2021/06/22 09:41:17;;;;;;;0.10;0.10;;;;;;;;;;5063133;28;20043;-71
2021/06/22 09:43:47;;;;;;;0.13;0.13;;;;;;;;;;5071868;28;20029;-73
2021/06/22 09:46:15;;;;;;;0.10;0.10;;;;;;;;;;5057791;28;20047;-78
2021/06/22 09:48:43;;;;;;;0.30;0.20;;;;;;;;;;5067499;28;20040;-74
2021/06/22 09:51:09;;;;;;;0.15;0.15;;;;;;;;;;5056121;28;20551;-67
2021/06/22 09:53:35;;;;;;;0.20;0.20;;;;;;;;;;5080908;28;20098;-76
2021/06/22 09:56:01;;;;;;;0.10;0.10;;;;;;;;;;5075670;28;20129;-76
2021/06/22 09:58:42;;;;;;;0.15;0.15;;;;;;;;;;5077523;28;20403;-74
2021/06/22 10:01:26;;;;;;;0.10;0.10;;;;;;;;;;5045763;28;20036;-79
2021/06/22 10:03:52;;;;;;;0.10;0.10;;;;;;;;;;5073056;28;20036;-77
2021/06/22 10:06:17;;;;;;;0.20;0.20;;;;;;;;;;5073930;28;20036;-75
2021/06/22 10:08:56;;;;;;;0.10;0.10;;;;;;;;;;5077919;28;20048;-73
2021/06/22 10:11:49;;;;;;;0.10;0.10;;;;;;;;;;5075452;28;20376;-74
2021/06/22 10:14:28;;;;;;;0.10;0.10;;;;;;;;;;5070695;28;20076;-74
2021/06/22 10:16:57;;;;;;;0.10;0.10;;;;;;;;;;5072345;28;20163;-71
2021/06/22 10:19:23;;;;;;;0.17;0.17;;;;;;;;;;5054726;28;20035;-71
2021/06/22 10:21:50;;;;;;;0.13;0.10;;;;;;;;;;5081208;28;20051;-75
2021/06/22 10:24:16;;;;;;;0.10;0.10;;;;;;;;;;5059901;28;20291;-71
2021/06/22 10:26:42;;;;;;;0.10;0.10;;;;;;;;;;5067477;28;20142;-71
2021/06/22 10:29:08;;;;;;;0.03;0.03;;;;;;;;;;5057030;28;20040;-70
2021/06/22 10:31:37;;;;;;;0.00;0.00;;;;;;;;;;5045596;28;20028;-73
2021/06/22 10:34:03;;;;;;;0.10;0.10;;;;;;;;;;5072198;28;20407;-70
2021/06/22 10:36:31;;;;;;;0.00;0.00;;;;;;;;;;5071441;28;20206;-71
2021/06/22 10:39:24;;;;;;;0.10;0.10;;;;;;;;;;5080064;28;20036;-73
2021/06/22 10:41:50;;;;;;;0.10;0.10;;;;;;;;;;5071008;28;20457;-72
2021/06/22 10:44:25;;;;;;;0.00;0.00;;;;;;;;;;5041116;28;20197;-74
2021/06/22 10:47:20;;;;;;;0.00;0.00;;;;;;;;;;5073960;28;20412;-75
2021/06/22 10:50:04;;;;;;;0.10;0.10;;;;;;;;;;5039738;28;20044;-74
2021/06/22 10:52:43;;;;;;;0.15;0.10;;;;;;;;;;5077038;28;20040;-73
2021/06/22 10:55:22;;;;;;;0.10;0.00;;;;;;;;;;5079700;28;20788;-74
2021/06/22 10:58:00;;;;;;;0.00;0.00;;;;;;;;;;5079408;28;20036;-74
2021/06/22 11:00:28;;;;;;;0.00;0.00;;;;;;;;;;5082938;28;20143;-71
2021/06/22 11:03:10;;;;;;;0.00;0.00;;;;;;;;;;5043638;28;20063;-72
2021/06/22 11:05:37;;;;;;;0.00;0.00;;;;;;;;;;5075970;28;20032;-74
2021/06/22 11:08:09;;;;;;;0.00;0.00;;;;;;;;;;5078396;28;20116;-75
2021/06/22 11:10:35;;;;;;;0.00;0.00;;;;;;;;;;5074634;28;20114;-77
2021/06/22 11:13:01;;;;;;;0.00;0.00;;;;;;;;;;5077633;28;20039;-73
2021/06/22 11:15:45;;;;;;;0.13;0.00;;;;;;;;;;5078232;28;20124;-76
2021/06/22 11:18:15;;;;;;;0.00;0.00;;;;;;;;;;5078637;28;20394;-77
2021/06/22 11:20:42;;;;;;;0.00;0.00;;;;;;;;;;5082780;28;20028;-76
2021/06/22 11:23:13;;;;;;;0.00;0.00;;;;;;;;;;5061922;28;20043;-73
2021/06/22 11:25:49;;;;;;;0.00;0.00;;;;;;;;;;5082481;28;20116;-81
2021/06/22 11:28:18;;;;;;;0.10;0.00;;;;;;;;;;5081657;28;20044;-78
2021/06/22 11:30:48;;;;;;;0.00;0.00;;;;;;;;;;5060888;28;20456;-79
2021/06/22 11:33:33;;;;;;;0.00;0.00;;;;;;;;;;5071983;28;20848;-77
2021/06/22 11:36:17;;;;;;;0.00;0.00;;;;;;;;;;5075473;28;20364;-74
2021/06/22 11:38:44;;;;;;;0.00;0.00;;;;;;;;;;5079842;28;20059;-79
2021/06/22 11:41:13;;;;;;;0.10;0.00;;;;;;;;;;5079718;28;20031;-76
2021/06/22 11:44:02;;;;;;;0.00;0.00;;;;;;;;;;5071120;28;20040;-69
2021/06/22 11:46:29;;;;;;;0.17;0.00;;;;;;;;;;4983025;28;20489;-75
2021/06/22 11:48:55;;;;;;;0.00;0.00;;;;;;;;;;4997633;28;20046;-81
2021/06/22 11:51:40;;;;;;;0.00;0.00;;;;;;;;;;5004139;28;20050;-69
2021/06/22 11:54:07;;;;;;;0.00;0.00;;;;;;;;;;4994440;28;20033;-76
2021/06/22 11:56:35;;;;;;;0.10;0.00;;;;;;;;;;4991050;28;20129;-75
2021/06/22 11:59:01;;;;;;;0.00;0.00;;;;;;;;;;4980107;28;20200;-76
2021/06/22 12:01:27;;;;;;;0.03;0.00;;;;;;;;;;4982124;28;20046;-77
2021/06/22 12:03:53;;;;;;;0.10;0.00;;;;;;;;;;5001602;28;20066;-76
2021/06/22 12:06:24;;;;;;;0.00;0.00;;;;;;;;;;4991211;28;20044;-72
2021/06/22 12:08:50;;;;;;;0.00;0.00;;;;;;;;;;4983212;28;20065;-70
2021/06/22 12:11:29;;;;;;;0.10;0.00;;;;;;;;;;4990903;28;20132;-71
2021/06/22 12:13:55;;;;;;;0.00;0.00;;;;;;;;;;4953833;28;20789;-71
2021/06/22 12:16:24;;;;;;;0.00;0.00;;;;;;;;;;4978802;28;20065;-70
2021/06/22 12:18:51;;;;;;;0.00;0.00;;;;;;;;;;4993723;28;20113;-73
2021/06/22 12:21:17;;;;;;;0.00;0.00;;;;;;;;;;4978940;28;20553;-70
2021/06/22 12:23:43;;;;;;;0.05;0.00;;;;;;;;;;5037539;28;20125;-69
2021/06/22 12:26:10;;;;;;;0.03;0.00;;;;;;;;;;5076937;28;20051;-73
2021/06/22 12:28:36;;;;;;;0.00;0.00;;;;;;;;;;5072540;28;20116;-76
2021/06/22 12:31:04;;;;;;;0.00;0.00;;;;;;;;;;5072323;28;20346;-71
2021/06/22 12:33:44;;;;;;;0.13;0.00;;;;;;;;;;5072843;28;20186;-72
2021/06/22 12:36:11;;;;;;;0.00;0.00;;;;;;;;;;5071312;28;20043;-71
2021/06/22 12:38:39;;;;;;;0.10;0.00;;;;;;;;;;5065743;28;20045;-70
2021/06/22 12:41:07;;;;;;;0.00;0.00;;;;;;;;;;5079277;28;20094;-71
2021/06/22 12:43:49;;;;;;;0.00;0.00;;;;;;;;;;5059507;28;20036;-72
2021/06/22 12:46:19;;;;;;;0.00;0.00;;;;;;;;;;5074503;28;20445;-79
2021/06/22 12:48:46;;;;;;;0.05;0.00;;;;;;;;;;5066194;28;20051;-77
2021/06/22 12:51:13;;;;;;;0.00;0.00;;;;;;;;;;5077900;28;20408;-75
2021/06/22 12:53:39;;;;;;;0.10;0.00;;;;;;;;;;5084469;28;20118;-77
2021/06/22 12:56:08;;;;;;;0.03;0.00;;;;;;;;;;5080770;28;20162;-73
2021/06/22 12:59:04;;;;;;;0.00;0.00;;;;;;;;;;5058944;28;20134;-78
2021/06/22 13:01:34;;;;;;;0.10;0.00;;;;;;;;;;4987710;28;20072;-79
2021/06/22 13:04:00;;;;;;;0.00;0.00;;;;;;;;;;4988544;28;20058;-71
2021/06/22 13:06:27;;;;;;;0.00;0.00;;;;;;;;;;5003052;28;20128;-74
2021/06/22 13:08:56;;;;;;;0.10;0.00;;;;;;;;;;4997089;28;20053;-79
2021/06/22 13:11:29;;;;;;;0.00;0.00;;;;;;;;;;5004291;28;20047;-76
2021/06/22 13:14:06;;;;;;;0.17;0.00;;;;;;;;;;4995675;28;20135;-75
2021/06/22 13:16:31;;;;;;;0.25;0.00;;;;;;;;;;5006038;28;20042;-73
2021/06/22 13:18:57;;;;;;;0.03;0.00;;;;;;;;;;5002189;28;20076;-75
2021/06/22 13:21:23;;;;;;;0.00;0.00;;;;;;;;;;4973534;28;20037;-72
2021/06/22 13:23:49;;;;;;;0.10;0.05;;;;;;;;;;5005177;28;20060;-70
2021/06/22 13:26:15;;;;;;;0.00;0.00;;;;;;;;;;4977980;28;20092;-83
2021/06/22 13:28:41;;;;;;;0.13;0.00;;;;;;;;;;5009166;28;20104;-73
2021/06/22 13:31:10;;;;;;;0.00;0.00;;;;;;;;;;5021686;28;20048;-70
2021/06/22 13:33:36;;;;;;;0.10;0.00;;;;;;;;;;5005357;28;20041;-74
2021/06/22 13:36:04;;;;;;;0.00;0.00;;;;;;;;;;5018655;28;20103;-71
2021/06/22 13:38:32;;;;;;;0.00;0.00;;;;;;;;;;5041273;28;20071;-73
2021/06/22 13:41:06;;;;;;;0.00;0.00;;;;;;;;;;5076925;28;20040;-72
2021/06/22 13:43:44;;;;;;;0.00;0.00;;;;;;;;;;5049023;28;20035;-71
2021/06/22 13:46:20;;;;;;;0.00;0.00;;;;;;;;;;5075670;28;20664;-71
2021/06/22 13:48:52;;;;;;;0.00;0.00;;;;;;;;;;5065367;28;20103;-72
2021/06/22 13:51:27;;;;;;;0.08;0.00;;;;;;;;;;5074130;28;20116;-68
2021/06/22 13:54:08;;;;;;;0.05;0.00;;;;;;;;;;5067439;28;20044;-72
2021/06/22 13:56:35;;;;;;;0.00;0.00;;;;;;;;;;5079688;28;20550;-75
2021/06/22 13:59:03;;;;;;;0.00;0.00;;;;;;;;;;5060222;28;20488;-74
2021/06/22 14:01:29;;;;;;;0.00;0.00;;;;;;;;;;5079486;28;20089;-70
2021/06/22 14:03:56;;;;;;;0.00;0.00;;;;;;;;;;5068108;28;20039;-72
2021/06/22 14:06:22;;;;;;;0.00;0.00;;;;;;;;;;5058754;28;20569;-76
2021/06/22 14:08:47;;;;;;;0.00;0.00;;;;;;;;;;5074243;28;20036;-74
2021/06/22 14:11:13;;;;;;;0.00;0.00;;;;;;;;;;5074232;28;20427;-71
2021/06/22 14:13:42;;;;;;;0.00;0.00;;;;;;;;;;5079801;28;20131;-76
2021/06/22 14:16:07;;;;;;;0.00;0.00;;;;;;;;;;5077417;28;20039;-75
2021/06/22 14:18:33;;;;;;;0.10;0.00;;;;;;;;;;5056224;28;20040;-73
2021/06/22 14:21:00;;;;;;;0.00;0.00;;;;;;;;;;5076192;28;20206;-75
2021/06/22 14:23:26;;;;;;;0.20;0.00;;;;;;;;;;5044498;28;20575;-75
2021/06/22 14:25:52;;;;;;;0.47;0.00;;;;;;;;;;5078805;28;20150;-72
2021/06/22 14:28:18;;;;;;;0.10;0.00;;;;;;;;;;5079612;28;20070;-71
2021/06/22 14:30:48;;;;;;;0.00;0.00;;;;;;;;;;5076911;28;20044;-74
2021/06/22 14:33:14;;;;;;;0.30;0.00;;;;;;;;;;5077917;28;20149;-75
2021/06/22 14:35:40;;;;;;;0.10;0.00;;;;;;;;;;5077748;28;20040;-72
2021/06/22 14:38:06;;;;;;;0.00;0.00;;;;;;;;;;5075321;28;20124;-73